Latest Coastal Weather Observations for Rhyll

IDV60701

Issued at 11:11 am EST Saturday 27 August 2016 (issued every 10 minutes, with the page automatically refreshed every 10 minutes)

About coastal observations | Map of coastal stations | Coastal observations for VIC | Marine services | Other Formats
Station Details ID: 086373 Name: RHYLL Lat: -38.46 Lon: 145.31 Height: 13.4 m
Data from the previous 72 hours. | See also: Recent months at Rhyll
Date/Time
EST
Temp
°C
Wind Pressure Rain since
9am
mm
Weather Cloud Vis
km
Sea
Height
m
Swell
Dir  Spd
kts
Gust
kts
hPa Trend Height
m
Period
s
Dir
27/11:00am 12.5 NW 7 15 1021.0 - 0.0 - - - - - - -
27/10:30am 12.4 NW 9 16 1021.1 - 0.0 - - - - - - -
27/10:00am 11.9 NW 10 16 1021.0 - 0.0 - - - - - - -
27/09:30am 10.9 NW 10 16 1021.1 - 0.0 - - - - - - -
27/09:00am 10.6 NNW 12 18 1021.1 - 0.0 - - - - - - -
27/08:30am 10.4 NW 7 12 1021.4 - 0.0 - - - - - - -
27/08:00am 10.2 NW 9 14 1021.4 - 0.0 - - - - - - -
27/07:30am 9.9 NW 6 11 1021.4 - 0.0 - - - - - - -
27/07:00am 9.5 NW 5 10 1021.2 - 0.0 - - - - - - -
27/06:30am 9.7 NW 5 9 1021.0 - 0.0 - - - - - - -
27/06:00am 9.4 NW 4 7 1020.7 - 0.0 - - - - - - -
27/05:30am 9.6 NW 5 9 1020.5 - 0.0 - - - - - - -
27/05:00am 9.8 NW 7 13 1020.2 - 0.0 - - - - - - -
27/04:30am 9.7 NW 6 11 1020.0 - 0.0 - - - - - - -
27/04:00am 9.3 NW 4 8 1020.1 - 0.0 - - - - - - -
27/03:30am 9.0 NW 5 9 1020.0 - 0.0 - - - - - - -
27/03:00am 9.0 NW 4 7 1020.3 - 0.0 - - - - - - -
27/02:30am 8.8 NW 2 5 1020.5 - 0.0 - - - - - - -
27/02:00am 9.0 NW 4 7 1020.7 - 0.0 - - - - - - -
27/01:30am 9.0 NW 3 6 1020.8 - 0.0 - - - - - - -
27/01:00am 9.2 NW 3 6 1020.9 - 0.0 - - - - - - -
27/12:30am 9.5 NW 4 7 1021.3 - 0.0 - - - - - - -
27/12:00am 9.8 NW 3 7 1021.3 - 0.0 - - - - - - -
 
Date/Time
EST
Temp
°C
Wind Pressure Rain since
9am
mm
Weather Cloud Vis
km
Sea
Height
m
Swell
Dir  Spd
kts
Gust
kts
hPa Trend Height
m
Period
s
Dir
26/11:30pm 10.2 NW 3 6 1021.4 - 0.0 - - - - - - -
26/11:00pm 10.5 WNW 3 6 1021.4 - 0.0 - - - - - - -
26/10:30pm 10.7 WNW 5 10 1021.5 - 0.0 - - - - - - -
26/10:00pm 11.0 WNW 5 9 1021.2 - 0.0 - - - - - - -
26/09:30pm 11.3 WNW 4 8 1021.2 - 0.0 - - - - - - -
26/09:00pm 11.4 WNW 5 9 1021.0 - 0.0 - - - - - - -
26/08:30pm 11.5 W 7 11 1021.0 - 0.0 - - - - - - -
26/08:00pm 11.5 WNW 5 10 1020.9 - 0.0 - - - - - - -
26/07:30pm 11.3 NW 5 10 1020.9 - 0.0 - - - - - - -
26/07:00pm 11.2 NW 4 8 1020.8 - 0.0 - - - - - - -
26/06:30pm 11.3 NW 4 7 1020.6 - 0.0 - - - - - - -
26/06:00pm 11.1 WNW 3 7 1020.4 - 0.0 - - - - - - -
26/05:30pm 11.7 WNW 4 9 1020.2 - 0.0 - - - - - - -
26/05:00pm 11.7 WNW 5 9 1020.2 - 0.0 - - - - - - -
26/04:30pm 11.8 NW 3 8 1020.0 - 0.0 - - - - - - -
26/04:00pm 11.9 WNW 5 9 1019.8 - 0.0 - - - - - - -
26/03:30pm 12.3 NW 5 8 1019.7 - 0.0 - - - - - - -
26/03:00pm 12.6 WNW 5 9 1019.7 - 0.0 - - - - - - -
26/02:30pm 13.0 NW 4 9 1019.8 - 0.0 - - - - - - -
26/02:00pm 12.6 WNW 6 11 1020.0 - 0.0 - - - - - - -
26/01:30pm 12.2 WNW 5 9 1020.2 - 0.0 - - - - - - -
26/01:00pm 12.8 W 7 12 1020.4 - 0.0 - - - - - - -
26/12:30pm 12.2 W 6 13 1020.8 - 0.0 - - - - - - -
26/12:00pm 11.5 WSW 7 14 1021.1 - 0.0 - - - - - - -
26/11:30am 12.7 W 8 15 1021.1 - 0.0 - - - - - - -
26/11:00am 11.5 W 7 12 1021.2 - 0.0 - - - - - - -
26/10:30am 11.4 W 7 13 1021.2 - 0.0 - - - - - - -
26/10:00am 11.0 WNW 4 7 1021.1 - 0.0 - - - - - - -
26/09:30am 10.1 WNW 3 5 1021.4 - 0.0 - - - - - - -
26/09:00am 9.8 WNW 3 7 1021.3 - 3.4 - - - - - - -
26/08:30am 9.5 W 5 9 1021.2 - 3.4 - - - - - - -
26/08:00am 9.1 W 3 5 1021.0 - 3.4 - - - - - - -
26/07:30am 8.9 WNW 3 6 1020.7 - 3.4 - - - - - - -
26/07:00am 8.7 W 6 11 1020.3 - 3.4 - - - - - - -
26/06:30am 8.4 WNW 3 6 1020.0 - 3.4 - - - - - - -
26/06:00am 8.5 WNW 2 4 1019.8 - 3.4 Recent precip. - - - - - -
26/05:30am 8.3 W 4 8 1019.7 - 3.4 - - - - - - -
26/05:00am 8.0 W 2 3 1019.3 - 3.2 - - - - - - -
26/04:30am 8.0 W 2 3 1019.1 - 3.2 - - - - - - -
26/04:00am 8.2 WSW 4 7 1019.1 - 3.2 - - - - - - -
26/03:30am 8.6 W 3 6 1019.0 - 2.8 - - - - - - -
26/03:00am 9.2 WSW 3 5 1018.8 - 2.8 - - - - - - -
26/02:30am 8.8 WSW 3 4 1018.9 - 2.8 - - - - - - -
26/02:00am 8.7 SW 3 5 1019.0 - 2.8 - - - - - - -
26/01:30am 9.3 SW 4 6 1019.1 - 2.8 - - - - - - -
26/01:00am 9.2 SW 5 7 1019.1 - 2.8 - - - - - - -
26/12:30am 9.3 SW 5 8 1019.1 - 2.8 - - - - - - -
26/12:00am 9.5 SW 6 9 1018.9 - 2.8 - - - - - - -
 
Date/Time
EST
Temp
°C
Wind Pressure Rain since
9am
mm
Weather Cloud Vis
km
Sea
Height
m
Swell
Dir  Spd
kts
Gust
kts
hPa Trend Height
m
Period
s
Dir
25/11:30pm 9.9 SW 7 11 1018.9 - 2.8 - - - - - - -
25/11:00pm 10.1 SW 8 13 1018.8 - 2.8 - - - - - - -
25/10:30pm 10.2 SW 7 11 1018.6 - 2.8 - - - - - - -
25/10:00pm 9.5 WSW 5 8 1018.6 - 2.4 - - - - - - -
25/09:30pm 9.9 SW 5 7 1018.5 - 2.0 - - - - - - -
25/09:00pm 9.5 SW 4 6 1018.3 - 2.0 - - - - - - -
25/08:30pm 9.5 SW 6 9 1018.2 - 2.0 - - - - - - -
25/08:00pm 8.9 WSW 4 5 1018.0 - 2.0 - - - - - - -
25/07:30pm 8.9 WSW 4 8 1017.7 - 1.0 - - - - - - -
25/07:00pm 9.3 WSW 7 13 1017.3 - 1.0 - - - - - - -
25/06:30pm 10.5 SW 6 9 1016.9 - 0.6 - - - - - - -
25/06:00pm 10.7 SSW 5 8 1016.4 - 0.6 - - - - - - -
25/05:30pm 10.9 SW 8 12 1016.1 - 0.6 - - - - - - -
25/05:00pm 11.4 SW 9 13 1015.7 - 0.6 - - - - - - -
25/04:30pm 11.6 SW 9 14 1015.5 - 0.6 - - - - - - -
25/04:00pm 11.7 SW 6 9 1015.4 - 0.6 - - - - - - -
25/03:30pm 10.6 SW 8 16 1015.5 - 0.6 - - - - - - -
25/03:00pm 12.8 SSW 8 13 1015.1 - 0.4 - - - - - - -
25/02:30pm 11.7 SW 8 15 1015.0 - 0.4 - - - - - - -
25/02:00pm 12.2 SW 10 15 1014.7 - 0.4 - - - - - - -
25/01:30pm 12.4 SW 9 15 1014.6 - 0.4 - - - - - - -
25/01:00pm 11.9 SW 10 16 1014.6 - 0.4 - - - - - - -
25/12:30pm 11.6 SSW 10 16 1014.7 - 0.4 - - - - - - -
25/12:00pm 10.8 SW 9 13 1014.8 - 0.4 Recent precip. - - - - - -
25/11:30am 11.9 SSW 7 15 1014.7 - 0.2 - - - - - - -
25/11:00am 11.9 SSW 9 14 1014.7 - 0.2 - - - - - - -
25/10:30am 11.5 SSW 8 15 1014.4 - 0.2 - - - - - - -
25/10:00am 11.1 SW 9 16 1014.2 - 0.2 - - - - - - -
25/09:30am 8.3 WSW 4 7 1014.1 - 0.2 - - - - - - -
25/09:00am 11.6 SW 5 10 1013.9 - 2.0 - - - - - - -
25/08:30am 9.2 WNW 3 5 1013.9 - 2.0 - - - - - - -
25/08:00am 8.4 SW 4 8 1013.6 - 2.0 - - - - - - -
25/07:30am 7.1 W 4 7 1013.2 - 1.6 - - - - - - -
25/07:00am 7.3 W 7 13 1013.1 - 1.6 - - - - - - -
25/06:30am 8.1 WSW 3 5 1012.9 - 1.0 - - - - - - -
25/06:00am 7.7 WSW 4 9 1012.4 - 0.6 Recent precip. - - - - - -
25/05:30am 7.6 SSW 9 17 1012.3 - 0.6 - - - - - - -
25/05:00am 8.1 W 4 6 1012.0 - 0.0 - - - - - - -
25/04:30am 8.8 WSW 4 6 1012.0 - 0.0 - - - - - - -
25/04:00am 8.1 W 4 6 1012.0 - 0.0 - - - - - - -
25/03:30am 8.1 WSW 4 5 1012.0 - 0.0 - - - - - - -
25/03:00am 8.3 W 5 7 1012.1 - 0.0 - - - - - - -
25/02:30am 8.1 WSW 5 9 1012.2 - 0.0 - - - - - - -
25/02:00am 8.3 W 5 6 1012.4 - 0.0 - - - - - - -
25/01:30am 8.3 W 5 6 1012.6 - 0.0 - - - - - - -
25/01:00am 8.2 WSW 4 6 1012.7 - 0.0 - - - - - - -
25/12:30am 8.1 W 5 8 1012.8 - 0.0 - - - - - - -
25/12:00am 8.2 W 4 7 1013.0 - 0.0 - - - - - - -
 
Date/Time
EST
Temp
°C
Wind Pressure Rain since
9am
mm
Weather Cloud Vis
km
Sea
Height
m
Swell
Dir  Spd
kts
Gust
kts
hPa Trend Height
m
Period
s
Dir
24/11:30pm 9.0 WSW 4 7 1013.1 - 0.0 - - - - - - -
24/11:00pm 8.7 WSW 3 6 1013.4 - 0.0 - - - - - - -
24/10:30pm 8.7 WSW 3 5 1013.5 - 0.0 - - - - - - -
24/10:00pm 8.8 SW 4 5 1013.7 - 0.0 - - - - - - -
24/09:30pm 9.0 SW 4 6 1013.9 - 0.0 - - - - - - -
24/09:00pm 8.9 SW 3 5 1013.9 - 0.0 - - - - - - -
24/08:30pm 9.1 WSW 3 5 1014.0 - 0.0 - - - - - - -
24/08:00pm 9.2 SW 4 7 1014.1 - 0.0 - - - - - - -
24/07:30pm 9.2 WSW 3 5 1014.2 - 0.0 - - - - - - -
24/07:00pm 8.9 WSW 3 5 1014.0 - 0.0 - - - - - - -
24/06:30pm 9.2 SW 4 5 1013.9 - 0.0 - - - - - - -
24/06:00pm 9.7 SW 4 7 1013.7 - 0.0 - - - - - - -
24/05:30pm 9.8 SW 2 4 1013.6 - 0.0 - - - - - - -
24/05:00pm 10.5 SSW 4 6 1013.6 - 0.0 - - - - - - -
24/04:30pm 10.3 S 3 6 1013.6 - 0.0 - - - - - - -
24/04:00pm 11.1 SSW 3 4 1013.6 - 0.0 - - - - - - -
24/03:30pm 11.7 S 3 5 1013.8 - 0.0 - - - - - - -
24/03:00pm 11.9 SSE 3 5 1013.8 - 0.0 - - - - - - -
24/02:30pm 11.9 E 1 2 1013.9 - 0.0 - - - - - - -
24/02:00pm 11.9 E 1 2 1014.1 - 0.0 - - - - - - -
24/01:30pm 11.7 SE 1 2 1014.3 - 0.0 - - - - - - -
24/01:00pm 11.8 SE 2 3 1014.4 - 0.0 - - - - - - -
24/12:30pm 11.2 ESE 2 3 1014.7 - 0.0 - - - - - - -
24/12:00pm 10.3 SSE 4 6 1015.3 - 0.0 - - - - - - -
24/11:30am 11.5 NE 2 3 1015.7 - 0.0 - - - - - - -

Other Formats:

Comma delimited format used in spreadsheet applications
http://www.bom.gov.au/fwo/IDV60701/IDV60701.94892.axf

JavaScript Object Notation format (JSON) in row-major order
http://www.bom.gov.au/fwo/IDV60701/IDV60701.94892.json